createdAt,value
2022-07-29T00:01:53.432Z,100999.78
2022-07-29T00:04:21.404Z,100794.22
2022-07-29T00:06:48.556Z,100949.59
2022-07-29T00:09:15.572Z,100970.81
2022-07-29T00:11:42.220Z,101001.34
2022-07-29T00:14:09.561Z,101000.16
2022-07-29T00:16:37.012Z,100996.50
2022-07-29T00:19:04.551Z,101005.88
2022-07-29T00:21:31.162Z,100996.16
2022-07-29T00:23:57.924Z,101009.78
2022-07-29T00:26:24.499Z,101019.72
2022-07-29T00:28:51.117Z,101018.47
2022-07-29T00:31:17.786Z,101024.84
2022-07-29T00:33:44.508Z,101020.31
2022-07-29T00:36:11.079Z,101033.63
2022-07-29T00:38:37.653Z,101039.66
2022-07-29T00:41:04.335Z,101005.66
2022-07-29T00:43:30.972Z,101039.53
2022-07-29T00:45:57.589Z,100997.22
2022-07-29T00:48:24.179Z,101012.63
2022-07-29T00:50:51.380Z,101035.53
2022-07-29T00:53:20.596Z,101029.66
2022-07-29T00:55:47.201Z,101057.44
2022-07-29T00:58:15.013Z,101051.97
2022-07-29T01:00:42.976Z,101050.09
2022-07-29T01:03:12.263Z,101011.31
2022-07-29T01:05:48.142Z,100986.88
2022-07-29T01:08:18.473Z,101019.09
2022-07-29T01:10:46.533Z,101018.63
2022-07-29T01:13:13.875Z,101031.66
2022-07-29T01:15:49.280Z,101034.25
2022-07-29T01:18:25.181Z,101028.19
2022-07-29T01:21:26.887Z,101018.09
2022-07-29T01:23:59.414Z,101026.97
2022-07-29T01:26:32.793Z,101037.25
2022-07-29T01:29:08.499Z,101005.28
2022-07-29T01:32:03.678Z,101011.94
2022-07-29T01:34:46.550Z,101012.88
2022-07-29T01:37:30.667Z,100970.41
2022-07-29T01:39:59.887Z,100968.47
2022-07-29T01:42:37.786Z,101017.44
2022-07-29T01:45:12.289Z,100994.47
2022-07-29T01:47:46.298Z,101019.03
2022-07-29T01:50:17.299Z,101002.78
2022-07-29T01:52:50.710Z,101016.16
2022-07-29T01:55:20.936Z,100943.91
2022-07-29T01:57:49.531Z,100972.78
2022-07-29T02:00:17.627Z,100997.75
2022-07-29T02:02:46.859Z,100970.97
2022-07-29T02:05:16.990Z,100943.16
2022-07-29T02:07:45.464Z,100986.50
2022-07-29T02:10:13.858Z,100995.28
2022-07-29T02:12:43.673Z,100982.84
2022-07-29T02:15:17.976Z,100964.00
2022-07-29T02:17:59.607Z,100974.09
2022-07-29T02:20:28.770Z,100987.25
2022-07-29T02:22:57.984Z,100991.16
2022-07-29T02:25:25.710Z,100976.25
2022-07-29T02:28:06.315Z,100964.88
2022-07-29T02:30:34.035Z,101002.28
2022-07-29T02:33:02.025Z,101002.06
2022-07-29T02:35:34.557Z,100995.03
2022-07-29T02:38:22.592Z,100987.19
2022-07-29T02:40:51.647Z,100944.06
2022-07-29T02:43:18.747Z,100988.66
2022-07-29T02:45:48.360Z,101009.09
2022-07-29T02:48:23.486Z,101003.94
2022-07-29T02:50:55.703Z,101001.09
2022-07-29T02:53:26.298Z,100979.31
2022-07-29T02:55:57.808Z,100990.34
2022-07-29T02:58:39.305Z,100997.56
2022-07-29T03:01:19.340Z,100991.75
2022-07-29T03:03:51.630Z,100977.16
2022-07-29T03:06:28.210Z,101006.81
2022-07-29T03:09:09.122Z,100979.63
2022-07-29T03:11:42.310Z,100986.00
2022-07-29T03:14:18.512Z,101009.13
2022-07-29T03:16:46.080Z,101005.47
2022-07-29T03:19:12.918Z,100990.66
2022-07-29T03:21:40.075Z,100970.31
2022-07-29T03:24:10.535Z,100998.88
2022-07-29T03:26:37.882Z,101001.47
2022-07-29T03:29:04.500Z,100995.41
2022-07-29T03:31:32.154Z,100990.25
2022-07-29T03:34:00.425Z,100993.19
2022-07-29T03:36:27.213Z,100970.78
2022-07-29T03:38:54.300Z,100972.22
2022-07-29T03:41:23.821Z,100982.56
2022-07-29T03:43:52.487Z,100989.78
2022-07-29T03:46:21.989Z,100962.31
2022-07-29T03:48:51.557Z,100964.59
2022-07-29T03:51:18.377Z,100986.63
2022-07-29T03:54:00.186Z,100970.81
2022-07-29T03:56:29.068Z,100978.16
2022-07-29T03:58:56.612Z,100979.78
2022-07-29T04:01:23.870Z,100883.31
2022-07-29T04:03:50.736Z,100953.13
2022-07-29T04:06:17.381Z,100983.72
2022-07-29T04:08:43.994Z,100981.22
2022-07-29T04:11:10.683Z,100978.81
2022-07-29T04:13:37.963Z,101003.75
2022-07-29T04:16:04.868Z,100998.31
2022-07-29T04:18:31.553Z,100985.00
2022-07-29T04:21:01.706Z,101011.97
2022-07-29T04:23:33.462Z,100999.94
2022-07-29T04:26:02.021Z,101001.94
2022-07-29T04:28:28.595Z,100979.28
2022-07-29T04:30:55.254Z,100996.50
2022-07-29T04:33:28.100Z,100973.69
2022-07-29T04:35:55.043Z,100934.59
2022-07-29T04:38:23.172Z,101013.72
2022-07-29T04:40:49.973Z,100998.16
2022-07-29T04:43:16.875Z,101026.66
2022-07-29T04:45:49.362Z,101012.06
2022-07-29T04:48:16.045Z,100984.03
2022-07-29T04:50:43.262Z,100932.91
2022-07-29T04:54:02.267Z,101036.38
2022-07-29T04:56:28.969Z,100970.56
2022-07-29T04:59:17.340Z,100883.81
2022-07-29T05:02:08.435Z,100914.00
2022-07-29T05:04:34.973Z,101040.13
2022-07-29T05:07:01.508Z,101010.25
2022-07-29T05:09:28.066Z,101050.56
2022-07-29T05:11:54.738Z,101038.94
2022-07-29T05:14:21.319Z,101036.38
2022-07-29T05:16:48.058Z,101022.63
2022-07-29T05:19:14.936Z,101047.72
2022-07-29T05:21:41.677Z,101043.25
2022-07-29T05:24:09.204Z,101056.91
2022-07-29T05:26:35.796Z,101064.47
2022-07-29T05:29:02.466Z,101022.78
2022-07-29T05:31:29.069Z,101070.38
2022-07-29T05:33:55.704Z,100978.66
2022-07-29T05:36:23.357Z,101016.66
2022-07-29T05:38:50.061Z,101066.50
2022-07-29T05:41:16.599Z,101026.28
2022-07-29T05:43:43.236Z,101037.56
2022-07-29T05:46:09.850Z,101021.72
2022-07-29T05:48:36.870Z,101067.34
2022-07-29T05:51:03.789Z,101076.38
2022-07-29T05:53:30.381Z,101075.56
2022-07-29T05:55:57.071Z,101076.16
2022-07-29T05:58:24.197Z,101028.81
2022-07-29T06:00:50.823Z,101052.91
2022-07-29T06:03:17.417Z,101084.25
2022-07-29T06:05:44.072Z,101077.31
2022-07-29T06:08:10.720Z,101076.03
2022-07-29T06:10:37.510Z,101096.19
2022-07-29T06:13:04.286Z,101090.00
2022-07-29T06:15:31.298Z,101088.78
2022-07-29T06:18:00.578Z,101106.69
2022-07-29T06:20:32.021Z,101038.47
2022-07-29T06:22:59.730Z,101091.41
2022-07-29T06:25:27.152Z,101048.41
2022-07-29T06:27:53.824Z,101079.56
2022-07-29T06:30:20.601Z,101069.31
2022-07-29T06:32:47.805Z,101072.97
2022-07-29T06:38:01.345Z,101087.13
2022-07-29T06:40:46.493Z,101101.19
2022-07-29T06:43:13.139Z,101098.50
2022-07-29T06:45:42.474Z,101109.66
2022-07-29T06:48:10.565Z,101110.88
2022-07-29T06:50:37.452Z,101083.84
2022-07-29T06:53:04.624Z,101117.09
2022-07-29T06:55:31.383Z,101112.69
2022-07-29T06:57:58.050Z,101118.13
2022-07-29T07:00:24.945Z,101115.56
2022-07-29T07:02:51.772Z,101033.63
2022-07-29T07:05:18.442Z,101029.81
2022-07-29T07:07:45.240Z,101118.22
2022-07-29T07:10:11.909Z,101050.34
2022-07-29T07:12:38.576Z,101121.31
2022-07-29T07:15:05.941Z,101125.59
2022-07-29T07:17:32.671Z,101125.13
2022-07-29T07:19:59.301Z,101090.84
2022-07-29T07:22:25.918Z,101079.78
2022-07-29T07:24:52.577Z,101117.06
2022-07-29T07:27:19.309Z,101107.56
2022-07-29T07:29:45.920Z,101112.56
2022-07-29T07:32:14.180Z,101108.63
2022-07-29T07:34:40.857Z,101121.84
2022-07-29T07:37:07.474Z,101119.22
2022-07-29T07:39:34.080Z,101073.91
2022-07-29T07:42:00.673Z,101119.69
2022-07-29T07:44:27.347Z,101100.44
2022-07-29T07:46:54.656Z,101113.41
2022-07-29T07:49:22.171Z,101101.19
2022-07-29T07:51:50.571Z,101085.53
2022-07-29T07:54:18.714Z,101097.50
2022-07-29T07:56:50.844Z,101082.91
2022-07-29T07:59:20.485Z,101088.34
2022-07-29T08:01:47.831Z,101071.28
2022-07-29T08:04:27.559Z,101112.06
2022-07-29T08:06:56.699Z,101084.56
2022-07-29T08:09:30.993Z,101088.50
2022-07-29T08:11:59.514Z,100939.72
2022-07-29T08:14:26.419Z,101059.53
2022-07-29T08:16:53.085Z,101101.94
2022-07-29T08:19:20.018Z,101081.75
2022-07-29T08:21:46.636Z,101077.72
2022-07-29T08:24:31.853Z,101097.03
2022-07-29T08:26:58.617Z,101069.25
2022-07-29T08:29:25.376Z,101089.41
2022-07-29T08:31:52.206Z,101090.75
2022-07-29T08:34:19.041Z,101031.34
2022-07-29T08:36:52.975Z,101088.16
2022-07-29T08:39:19.596Z,101069.38
2022-07-29T08:41:57.399Z,101044.59
2022-07-29T08:44:30.872Z,101083.31
2022-07-29T08:46:58.092Z,101077.59
2022-07-29T08:49:24.839Z,101079.25
2022-07-29T08:51:52.214Z,101053.22
2022-07-29T08:54:19.657Z,101058.31
2022-07-29T08:56:50.978Z,101060.44
2022-07-29T08:59:20.989Z,101047.75
2022-07-29T09:01:49.426Z,101064.13
2022-07-29T09:04:17.239Z,101066.28
2022-07-29T09:06:47.175Z,101026.66
2022-07-29T09:09:14.786Z,101053.34
2022-07-29T09:12:00.110Z,101075.00
2022-07-29T09:14:26.818Z,101072.91
2022-07-29T09:16:57.613Z,101073.31
2022-07-29T09:19:32.315Z,101054.63
2022-07-29T09:22:03.833Z,101020.88
2022-07-29T09:24:44.323Z,101067.22
2022-07-29T09:27:24.683Z,101066.13
2022-07-29T09:30:01.269Z,101047.38
2022-07-29T09:32:29.400Z,101038.78
2022-07-29T09:35:16.248Z,101051.72
2022-07-29T09:37:44.109Z,101028.22
2022-07-29T09:40:26.029Z,100982.31
2022-07-29T09:42:55.113Z,101014.56
2022-07-29T09:45:33.000Z,101011.31
2022-07-29T09:48:03.814Z,101035.44
2022-07-29T09:50:41.172Z,101027.56
2022-07-29T09:53:10.381Z,100999.53
2022-07-29T09:55:53.161Z,101016.25
2022-07-29T09:58:22.202Z,101014.06
2022-07-29T10:00:50.750Z,100995.34
2022-07-29T10:03:18.398Z,101024.75
2022-07-29T10:05:46.491Z,101025.34
2022-07-29T10:08:13.801Z,100952.25
2022-07-29T10:10:43.988Z,101009.41
2022-07-29T10:13:15.760Z,100877.59
2022-07-29T10:15:46.396Z,100987.88
2022-07-29T10:18:14.888Z,101022.06
2022-07-29T10:20:42.269Z,101025.41
2022-07-29T10:23:10.232Z,101000.19
2022-07-29T10:25:36.968Z,101009.69
2022-07-29T10:28:03.810Z,101019.31
2022-07-29T10:30:30.572Z,101016.16
2022-07-29T10:33:19.710Z,101006.34
2022-07-29T10:35:58.451Z,100968.75
2022-07-29T10:38:45.622Z,100989.09
2022-07-29T10:41:49.907Z,100944.22
2022-07-29T10:44:23.224Z,100975.50
2022-07-29T10:46:52.124Z,100960.69
2022-07-29T10:52:13.276Z,100944.06
2022-07-29T10:54:48.814Z,100960.81
2022-07-29T10:57:54.699Z,100952.59
2022-07-29T11:00:17.023Z,100942.38
2022-07-29T11:02:45.973Z,100924.28
2022-07-29T11:05:20.607Z,100936.66
2022-07-29T11:08:20.021Z,100950.41
2022-07-29T11:11:22.265Z,100936.66
2022-07-29T11:13:54.199Z,100877.03
2022-07-29T11:16:26.570Z,100917.66
2022-07-29T11:19:13.419Z,100941.25
2022-07-29T11:21:53.696Z,100883.38
2022-07-29T11:24:29.367Z,100939.91
2022-07-29T11:27:10.389Z,100923.72
2022-07-29T11:29:41.442Z,100905.06
2022-07-29T11:32:22.509Z,100931.72
2022-07-29T11:35:17.093Z,100926.78
2022-07-29T11:37:55.324Z,100938.03
2022-07-29T11:40:24.897Z,100932.00
2022-07-29T11:42:52.561Z,100794.88
2022-07-29T11:45:44.412Z,100866.88
2022-07-29T11:48:31.788Z,100914.94
2022-07-29T11:51:00.706Z,100908.09
2022-07-29T11:53:29.148Z,100917.38
2022-07-29T11:56:00.190Z,100828.63
2022-07-29T11:58:27.241Z,100867.84
2022-07-29T12:00:55.563Z,100900.88
2022-07-29T12:06:15.461Z,100900.22
2022-07-29T12:08:45.536Z,100908.94
2022-07-29T12:11:17.936Z,100900.06
2022-07-29T12:13:47.674Z,100884.16
2022-07-29T12:16:16.013Z,100876.66
2022-07-29T12:19:02.876Z,100884.56
2022-07-29T12:21:53.881Z,100888.66
2022-07-29T12:24:26.944Z,100888.09
2022-07-29T12:26:59.003Z,100880.47
2022-07-29T12:29:35.059Z,100820.59
2022-07-29T12:32:04.884Z,100868.41
2022-07-29T12:34:32.315Z,100859.91
2022-07-29T12:36:59.075Z,100845.50
2022-07-29T12:39:28.946Z,100854.25
2022-07-29T12:42:04.076Z,100807.97
2022-07-29T12:44:52.478Z,100856.88
2022-07-29T12:47:20.415Z,100849.81
2022-07-29T12:49:47.848Z,100794.38
2022-07-29T12:52:37.429Z,100829.22
2022-07-29T12:55:05.123Z,100840.50
2022-07-29T12:57:32.966Z,100841.59
2022-07-29T13:00:06.130Z,100835.00
2022-07-29T13:02:32.821Z,100824.84
2022-07-29T13:05:01.289Z,100839.91
2022-07-29T13:07:54.418Z,100802.63
2022-07-29T13:10:24.585Z,100844.91
2022-07-29T13:13:09.087Z,100839.44
2022-07-29T13:15:36.603Z,100827.25
2022-07-29T13:18:03.803Z,100795.69
2022-07-29T13:20:30.961Z,100812.78
2022-07-29T13:22:59.429Z,100823.16
2022-07-29T13:25:33.122Z,100775.03
2022-07-29T13:28:01.017Z,100829.75
2022-07-29T13:30:28.169Z,100823.97
2022-07-29T13:32:56.119Z,100816.31
2022-07-29T13:35:23.041Z,100783.66
2022-07-29T13:37:49.659Z,100810.28
2022-07-29T13:40:18.786Z,100774.50
2022-07-29T13:42:45.465Z,100801.44
2022-07-29T13:45:14.253Z,100794.34
2022-07-29T13:47:46.009Z,100752.63
2022-07-29T13:50:19.595Z,100792.69
2022-07-29T13:52:46.234Z,100760.84
2022-07-29T13:55:12.866Z,100781.16
2022-07-29T13:57:39.508Z,100779.78
2022-07-29T14:00:07.569Z,100767.41
2022-07-29T14:02:34.652Z,100736.72
2022-07-29T14:05:06.162Z,100761.69
2022-07-29T14:07:34.739Z,100770.19
2022-07-29T14:10:01.408Z,100778.16
2022-07-29T14:12:28.260Z,100785.03
2022-07-29T14:14:54.992Z,100772.66
2022-07-29T14:17:21.747Z,100771.84
2022-07-29T14:19:48.446Z,100743.28
2022-07-29T14:22:15.590Z,100707.06
2022-07-29T14:24:43.072Z,100755.94
2022-07-29T14:27:09.718Z,100775.69
2022-07-29T14:29:38.312Z,100727.38
2022-07-29T14:32:10.106Z,100773.78
2022-07-29T14:34:37.724Z,100766.34
2022-07-29T14:37:06.773Z,100769.09
2022-07-29T14:39:42.161Z,100741.09
2022-07-29T14:42:11.555Z,100769.09
2022-07-29T14:44:39.733Z,100729.84
2022-07-29T14:47:07.628Z,100671.94
2022-07-29T14:49:36.163Z,100719.69
2022-07-29T14:52:03.522Z,100758.09
2022-07-29T14:54:30.383Z,100721.56
2022-07-29T14:57:00.086Z,100719.84
2022-07-29T14:59:27.392Z,100668.81
2022-07-29T15:01:54.248Z,100605.47
2022-07-29T15:04:21.095Z,100785.56
2022-07-29T15:06:47.891Z,100777.56
2022-07-29T15:09:14.745Z,100608.97
2022-07-29T15:11:41.308Z,100748.53
2022-07-29T15:14:08.084Z,100764.72
2022-07-29T15:16:38.056Z,100696.16
2022-07-29T15:19:05.809Z,100785.78
2022-07-29T15:21:32.848Z,100706.22
2022-07-29T15:23:59.795Z,100798.34
2022-07-29T15:26:27.048Z,100827.53
2022-07-29T15:28:54.030Z,100649.28
2022-07-29T15:31:20.688Z,100813.63
2022-07-29T15:33:48.686Z,100796.84
2022-07-29T15:36:35.741Z,100803.53
2022-07-29T15:39:02.267Z,100802.78
2022-07-29T15:41:29.038Z,100828.28
2022-07-29T15:43:55.825Z,100794.78
2022-07-29T15:46:41.086Z,100813.41
2022-07-29T15:49:08.252Z,100737.72
2022-07-29T15:51:35.178Z,100780.50
2022-07-29T15:54:03.892Z,100745.16
2022-07-29T15:56:33.429Z,100809.56
2022-07-29T15:59:00.317Z,100776.66
2022-07-29T16:01:28.170Z,100800.22
2022-07-29T16:03:55.397Z,100798.06
2022-07-29T16:06:22.914Z,100822.25
2022-07-29T16:08:49.879Z,100797.81
2022-07-29T16:11:16.628Z,100855.22
2022-07-29T16:13:43.426Z,100868.41
2022-07-29T16:16:10.401Z,100712.25
2022-07-29T16:18:37.247Z,100797.22
2022-07-29T16:21:04.011Z,100811.59
2022-07-29T16:23:30.748Z,100875.59
2022-07-29T16:26:00.024Z,100866.25
2022-07-29T16:28:30.441Z,100802.59
2022-07-29T16:30:58.038Z,100712.03
2022-07-29T16:33:24.849Z,100864.41
2022-07-29T16:35:51.974Z,100777.31
2022-07-29T16:38:19.134Z,100823.97
2022-07-29T16:40:45.847Z,100837.16
2022-07-29T16:43:12.692Z,100861.88
2022-07-29T16:45:45.541Z,100805.75
2022-07-29T16:48:14.696Z,100865.66
2022-07-29T16:50:43.319Z,100857.41
2022-07-29T16:53:10.561Z,100840.06
2022-07-29T16:55:37.301Z,100777.38
2022-07-29T16:58:04.167Z,100832.59
2022-07-29T17:03:05.892Z,100839.69
2022-07-29T17:05:50.479Z,100836.69
2022-07-29T17:08:20.229Z,100821.03
2022-07-29T17:10:47.352Z,100847.31
2022-07-29T17:13:14.441Z,100756.63
2022-07-29T17:15:43.098Z,100835.84
2022-07-29T17:18:12.599Z,100771.25
2022-07-29T17:20:41.593Z,100771.25
2022-07-29T17:23:08.443Z,100777.03
2022-07-29T17:25:35.260Z,100794.13
2022-07-29T17:28:01.966Z,100825.72
2022-07-29T17:30:29.809Z,100804.31
2022-07-29T17:32:56.590Z,100819.13
2022-07-29T17:35:41.736Z,100811.69
2022-07-29T17:38:08.429Z,100815.50
2022-07-29T17:40:35.193Z,100825.41
2022-07-29T17:43:01.898Z,100862.84
2022-07-29T17:45:48.704Z,100840.22
2022-07-29T17:48:15.477Z,100819.31
2022-07-29T17:50:42.368Z,100865.47
2022-07-29T17:53:10.777Z,100806.53
2022-07-29T17:55:45.394Z,100850.31
2022-07-29T17:58:12.674Z,100748.25
2022-07-29T18:00:39.432Z,100888.09
2022-07-29T18:03:06.536Z,100863.81
2022-07-29T18:05:33.819Z,100877.84
2022-07-29T18:08:01.045Z,100869.03
2022-07-29T18:10:27.765Z,100899.22
2022-07-29T18:12:54.752Z,100890.44
2022-07-29T18:15:21.502Z,100873.38
2022-07-29T18:17:53.989Z,100888.72
2022-07-29T18:20:25.941Z,100821.09
2022-07-29T18:22:53.121Z,100879.34
2022-07-29T18:25:20.003Z,100870.47
2022-07-29T18:27:46.664Z,100831.34
2022-07-29T18:30:15.257Z,100863.56
2022-07-29T18:32:54.369Z,100865.50
2022-07-29T18:35:29.289Z,100837.66
2022-07-29T18:38:01.579Z,100803.81
2022-07-29T18:40:29.954Z,100866.59
2022-07-29T18:42:57.288Z,100835.19
2022-07-29T18:45:28.364Z,100806.59
2022-07-29T18:47:57.089Z,100856.66
2022-07-29T18:50:29.614Z,100859.97
2022-07-29T18:53:01.262Z,100851.38
2022-07-29T18:55:27.993Z,100853.69
2022-07-29T18:57:57.123Z,100847.28
2022-07-29T19:00:26.180Z,100827.19
2022-07-29T19:02:53.243Z,100857.50
2022-07-29T19:05:20.722Z,100850.88
2022-07-29T19:07:47.408Z,100752.00
2022-07-29T19:10:14.053Z,100804.91
2022-07-29T19:12:41.341Z,100863.19
2022-07-29T19:15:10.702Z,100896.09
2022-07-29T19:17:38.771Z,100897.13
2022-07-29T19:20:07.306Z,100899.88
2022-07-29T19:22:34.601Z,100830.78
2022-07-29T19:25:01.791Z,100879.00
2022-07-29T19:27:28.850Z,100896.50
2022-07-29T19:29:59.385Z,100905.28
2022-07-29T19:32:26.780Z,100898.84
2022-07-29T19:35:12.328Z,100935.28
2022-07-29T19:37:39.164Z,100956.03
2022-07-29T19:40:06.863Z,100907.63
2022-07-29T19:42:34.096Z,100839.63
2022-07-29T19:45:00.847Z,100865.81
2022-07-29T19:47:27.543Z,100852.50
2022-07-29T19:49:55.363Z,100910.13
2022-07-29T19:52:22.185Z,100852.06
2022-07-29T19:54:48.840Z,100910.44
2022-07-29T19:57:15.582Z,100898.66
2022-07-29T19:59:44.504Z,100893.44
2022-07-29T20:02:12.583Z,100894.44
2022-07-29T20:04:39.899Z,100915.28
2022-07-29T20:07:07.419Z,100946.91
2022-07-29T20:09:36.819Z,100851.88
2022-07-29T20:12:04.822Z,100823.16
2022-07-29T20:14:31.657Z,100926.16
2022-07-29T20:16:58.616Z,100774.91
2022-07-29T20:19:28.112Z,100817.84
2022-07-29T20:21:54.860Z,100836.16
2022-07-29T20:24:21.897Z,100911.31
2022-07-29T20:26:49.582Z,100963.13
2022-07-29T20:29:16.686Z,100789.16
2022-07-29T20:31:43.446Z,100966.81
2022-07-29T20:34:14.361Z,100956.31
2022-07-29T20:36:41.538Z,100972.59
2022-07-29T20:39:10.225Z,100987.38
2022-07-29T20:41:36.957Z,100993.91
2022-07-29T20:44:04.448Z,100919.72
2022-07-29T20:46:31.436Z,100789.47
2022-07-29T20:48:58.257Z,101003.94
2022-07-29T20:51:25.646Z,100990.22
2022-07-29T20:53:52.625Z,101014.22
2022-07-29T20:56:19.661Z,101016.50
2022-07-29T20:58:46.583Z,100956.47
2022-07-29T21:01:13.438Z,100994.47
2022-07-29T21:03:41.069Z,101009.91
2022-07-29T21:06:09.131Z,101019.72
2022-07-29T21:08:35.866Z,100832.91
2022-07-29T21:11:02.603Z,100927.78
2022-07-29T21:13:29.605Z,100986.66
2022-07-29T21:16:02.705Z,100852.06
2022-07-29T21:18:33.008Z,100976.47
2022-07-29T21:21:01.183Z,100995.53
2022-07-29T21:23:28.351Z,100999.69
2022-07-29T21:25:57.781Z,100939.13
2022-07-29T21:28:29.528Z,101020.00
2022-07-29T21:30:59.104Z,100969.13
2022-07-29T21:33:29.329Z,100971.97
2022-07-29T21:36:26.698Z,101019.47
2022-07-29T21:38:43.999Z,100986.41
2022-07-29T21:41:12.674Z,101019.59
2022-07-29T21:43:41.731Z,100927.41
2022-07-29T21:46:09.401Z,100885.78
2022-07-29T21:48:37.102Z,100998.34
2022-07-29T21:51:06.299Z,101037.56
2022-07-29T21:53:32.997Z,100926.59
2022-07-29T21:56:03.118Z,101048.84
2022-07-29T21:58:33.295Z,101055.81
2022-07-29T22:01:00.360Z,101041.00
2022-07-29T22:03:27.053Z,101034.97
2022-07-29T22:05:54.272Z,101051.69
2022-07-29T22:08:23.167Z,101015.19
2022-07-29T22:10:52.735Z,101033.22
2022-07-29T22:13:19.391Z,101056.63
2022-07-29T22:15:48.582Z,101037.78
2022-07-29T22:18:20.629Z,101049.47
2022-07-29T22:20:48.933Z,101027.00
2022-07-29T22:23:15.742Z,101056.19
2022-07-29T22:25:42.455Z,101052.50
2022-07-29T22:28:09.196Z,101051.31
2022-07-29T22:30:37.465Z,100955.84
2022-07-29T22:33:04.301Z,101024.53
2022-07-29T22:35:31.106Z,101016.63
2022-07-29T22:37:58.087Z,100911.84
2022-07-29T22:40:30.485Z,100900.16
2022-07-29T22:42:57.990Z,101045.59
2022-07-29T22:45:25.976Z,101045.34
2022-07-29T22:47:59.107Z,101047.03
2022-07-29T22:50:26.565Z,101049.44
2022-07-29T22:52:53.653Z,101003.38
2022-07-29T22:55:21.335Z,101045.34
2022-07-29T22:57:48.051Z,101055.19
2022-07-29T23:00:15.141Z,101061.19
2022-07-29T23:02:41.946Z,101055.00
2022-07-29T23:05:12.357Z,101052.81
2022-07-29T23:07:39.015Z,100938.03
2022-07-29T23:10:06.515Z,101031.09
2022-07-29T23:12:33.142Z,101026.19
2022-07-29T23:14:59.978Z,101046.72
2022-07-29T23:17:26.649Z,101039.38
2022-07-29T23:19:53.440Z,101005.34
2022-07-29T23:22:22.837Z,100988.31
2022-07-29T23:24:49.597Z,101051.94
2022-07-29T23:27:16.266Z,101015.69
2022-07-29T23:29:43.193Z,100930.78
2022-07-29T23:32:09.859Z,101032.75
2022-07-29T23:34:36.674Z,100977.59
2022-07-29T23:37:03.693Z,100994.41
2022-07-29T23:39:30.560Z,100912.22
2022-07-29T23:41:57.239Z,101017.25
2022-07-29T23:44:24.166Z,101012.44
2022-07-29T23:46:51.052Z,100842.75
2022-07-29T23:49:17.870Z,100925.38
2022-07-29T23:51:44.780Z,100900.50
2022-07-29T23:54:11.501Z,100970.22
2022-07-29T23:56:38.310Z,101001.16
2022-07-29T23:59:05.903Z,100998.28
